Fort Liard, Canada
Current Conditions -  °F | °C
As of 2:00 AM on Saturday 25 Oct 2014 (Local Time) from CYYE Reporting Station
Clear Clear  
Wind Chill: 25°   Ceiling: Unl
Heat Index: 25°   Visibility: 15mi
Dew Point: 25°   Wind: 2mph
Humidity: 100%   Direction: NA
Pressure: 29.91"   Gusts: NA
Location:  60.23°N, 123.48°W
Report Text: CYYE 250800Z VRB02KT 15SM SKC M04/M04 A2991 RMK AURBO SLP153
Loading
Personal Weather Stations






























Interactive Weather Map
Tropical Storm Tracking
New forecast layout! Learn more

10-Day Weather Forecast

Advertisements
Track Severe Weather on mobile